sensor_id;sensor_type;location;lat;lon;timestamp;pressure;altitude;pressure_sealevel;temperature;humidity
29825;BME280;16713;52.916;12.834;2023-12-07T00:00:33;101024.69;;;1.02;75.73
29825;BME280;16713;52.916;12.834;2023-12-07T00:03:00;101025.78;;;1.01;74.48
29825;BME280;16713;52.916;12.834;2023-12-07T00:05:27;101023.56;;;1.03;74.84
29825;BME280;16713;52.916;12.834;2023-12-07T00:07:54;101030.09;;;1.02;74.23
29825;BME280;16713;52.916;12.834;2023-12-07T00:10:21;101027.38;;;1.02;74.32
29825;BME280;16713;52.916;12.834;2023-12-07T00:12:47;101023.56;;;1.03;76.21
29825;BME280;16713;52.916;12.834;2023-12-07T00:15:14;101025.78;;;1.01;74.98
29825;BME280;16713;52.916;12.834;2023-12-07T00:17:41;101024.59;;;1.07;73.97
29825;BME280;16713;52.916;12.834;2023-12-07T00:20:08;101030.84;;;1.07;75.11
29825;BME280;16713;52.916;12.834;2023-12-07T00:22:34;101029.50;;;1.05;74.34
29825;BME280;16713;52.916;12.834;2023-12-07T00:25:01;101032.81;;;1.02;75.03
29825;BME280;16713;52.916;12.834;2023-12-07T00:27:28;101036.63;;;1.01;74.77
29825;BME280;16713;52.916;12.834;2023-12-07T00:29:54;101033.41;;;0.99;75.44
29825;BME280;16713;52.916;12.834;2023-12-07T00:32:21;101032.09;;;0.96;75.29
29825;BME280;16713;52.916;12.834;2023-12-07T00:34:48;101038.28;;;0.97;76.09
29825;BME280;16713;52.916;12.834;2023-12-07T00:37:16;101044.81;;;0.96;74.72
29825;BME280;16713;52.916;12.834;2023-12-07T00:39:42;101042.41;;;0.94;76.46
29825;BME280;16713;52.916;12.834;2023-12-07T00:42:09;101046.44;;;0.97;75.20
29825;BME280;16713;52.916;12.834;2023-12-07T00:44:39;101048.63;;;0.95;75.81
29825;BME280;16713;52.916;12.834;2023-12-07T00:47:07;101051.63;;;0.93;75.43
29825;BME280;16713;52.916;12.834;2023-12-07T00:49:33;101055.13;;;0.94;75.98
29825;BME280;16713;52.916;12.834;2023-12-07T00:52:00;101046.50;;;0.92;75.24
29825;BME280;16713;52.916;12.834;2023-12-07T00:54:26;101055.97;;;0.94;74.64
29825;BME280;16713;52.916;12.834;2023-12-07T00:56:53;101057.03;;;0.93;76.48
29825;BME280;16713;52.916;12.834;2023-12-07T00:59:19;101052.44;;;0.94;75.67
29825;BME280;16713;52.916;12.834;2023-12-07T01:01:46;101057.56;;;0.95;75.10
29825;BME280;16713;52.916;12.834;2023-12-07T01:04:12;101065.69;;;0.95;74.91
29825;BME280;16713;52.916;12.834;2023-12-07T01:06:39;101062.69;;;0.97;75.70
29825;BME280;16713;52.916;12.834;2023-12-07T01:09:06;101070.50;;;0.98;74.64
29825;BME280;16713;52.916;12.834;2023-12-07T01:11:32;101084.03;;;0.98;75.01
29825;BME280;16713;52.916;12.834;2023-12-07T01:13:59;101090.28;;;0.99;75.31
29825;BME280;16713;52.916;12.834;2023-12-07T01:16:26;101083.75;;;1.00;75.83
29825;BME280;16713;52.916;12.834;2023-12-07T01:18:52;101089.47;;;0.98;74.75
29825;BME280;16713;52.916;12.834;2023-12-07T01:21:19;101090.28;;;0.99;74.62
29825;BME280;16713;52.916;12.834;2023-12-07T01:23:46;101093.81;;;0.99;74.25
29825;BME280;16713;52.916;12.834;2023-12-07T01:26:13;101094.59;;;1.00;75.12
29825;BME280;16713;52.916;12.834;2023-12-07T01:28:39;101100.81;;;1.00;75.78
29825;BME280;16713;52.916;12.834;2023-12-07T01:31:06;101095.41;;;1.00;74.76
29825;BME280;16713;52.916;12.834;2023-12-07T01:33:32;101102.13;;;1.03;74.76
29825;BME280;16713;52.916;12.834;2023-12-07T01:35:59;101098.09;;;1.00;76.38
29825;BME280;16713;52.916;12.834;2023-12-07T01:38:26;101103.53;;;1.00;75.29
29825;BME280;16713;52.916;12.834;2023-12-07T01:40:53;101108.13;;;1.00;75.33
29825;BME280;16713;52.916;12.834;2023-12-07T01:43:23;101107.63;;;0.98;75.81
29825;BME280;16713;52.916;12.834;2023-12-07T01:45:51;101117.66;;;0.97;76.05
29825;BME280;16713;52.916;12.834;2023-12-07T01:48:22;101114.94;;;0.97;75.13
29825;BME280;16713;52.916;12.834;2023-12-07T01:50:50;101111.94;;;0.99;75.68
29825;BME280;16713;52.916;12.834;2023-12-07T01:53:17;101111.66;;;1.00;74.59
29825;BME280;16713;52.916;12.834;2023-12-07T01:55:45;101115.19;;;1.01;75.46
29825;BME280;16713;52.916;12.834;2023-12-07T01:58:11;101115.97;;;1.01;75.09
29825;BME280;16713;52.916;12.834;2023-12-07T02:00:38;101126.00;;;1.01;74.67
29825;BME280;16713;52.916;12.834;2023-12-07T02:03:05;101129.31;;;0.98;75.24
29825;BME280;16713;52.916;12.834;2023-12-07T02:05:33;101133.91;;;0.97;75.71
29825;BME280;16713;52.916;12.834;2023-12-07T02:07:59;101134.13;;;1.01;75.09
29825;BME280;16713;52.916;12.834;2023-12-07T02:10:26;101140.03;;;1.03;74.84
29825;BME280;16713;52.916;12.834;2023-12-07T02:12:53;101139.56;;;1.01;76.13
29825;BME280;16713;52.916;12.834;2023-12-07T02:15:20;101134.63;;;1.03;75.78
29825;BME280;16713;52.916;12.834;2023-12-07T02:23:10;101139.84;;;0.99;74.82
29825;BME280;16713;52.916;12.834;2023-12-07T02:28:06;101144.97;;;1.01;74.94
29825;BME280;16713;52.916;12.834;2023-12-07T02:30:33;101150.97;;;0.98;75.87
29825;BME280;16713;52.916;12.834;2023-12-07T02:33:00;101144.75;;;0.97;74.75
29825;BME280;16713;52.916;12.834;2023-12-07T02:35:28;101145.56;;;0.98;74.36
29825;BME280;16713;52.916;12.834;2023-12-07T02:37:55;101145.03;;;0.96;74.94
29825;BME280;16713;52.916;12.834;2023-12-07T02:40:24;101150.38;;;1.01;75.75
29825;BME280;16713;52.916;12.834;2023-12-07T02:42:52;101154.47;;;0.98;74.33
29825;BME280;16713;52.916;12.834;2023-12-07T02:45:19;101151.75;;;0.98;75.52
29825;BME280;16713;52.916;12.834;2023-12-07T02:47:46;101148.75;;;1.00;74.99
29825;BME280;16713;52.916;12.834;2023-12-07T02:50:13;101152.88;;;0.97;75.96
29825;BME280;16713;52.916;12.834;2023-12-07T02:52:40;101154.19;;;1.00;74.07
29825;BME280;16713;52.916;12.834;2023-12-07T02:55:07;101153.59;;;1.03;74.01
29825;BME280;16713;52.916;12.834;2023-12-07T02:57:35;101157.13;;;1.03;73.92
29825;BME280;16713;52.916;12.834;2023-12-07T03:00:04;101165.53;;;1.02;74.88
29825;BME280;16713;52.916;12.834;2023-12-07T03:02:37;101156.88;;;1.00;73.48
29825;BME280;16713;52.916;12.834;2023-12-07T03:05:05;101167.44;;;1.01;75.21
29825;BME280;16713;52.916;12.834;2023-12-07T03:07:33;101172.06;;;1.01;73.91
29825;BME280;16713;52.916;12.834;2023-12-07T03:10:01;101174.19;;;1.04;76.03
29825;BME280;16713;52.916;12.834;2023-12-07T03:12:27;101169.28;;;1.06;74.90
29825;BME280;16713;52.916;12.834;2023-12-07T03:14:54;101173.59;;;1.07;75.11
29825;BME280;16713;52.916;12.834;2023-12-07T03:17:21;101173.88;;;1.05;75.46
29825;BME280;16713;52.916;12.834;2023-12-07T03:19:47;101173.88;;;1.05;74.82
29825;BME280;16713;52.916;12.834;2023-12-07T03:22:14;101165.47;;;1.07;74.32
29825;BME280;16713;52.916;12.834;2023-12-07T03:24:46;101166.06;;;1.04;74.15
29825;BME280;16713;52.916;12.834;2023-12-07T03:27:14;101178.78;;;1.03;74.59
29825;BME280;16713;52.916;12.834;2023-12-07T03:29:41;101182.09;;;1.00;75.43
29825;BME280;16713;52.916;12.834;2023-12-07T03:32:07;101179.38;;;1.00;74.06
29825;BME280;16713;52.916;12.834;2023-12-07T03:34:34;101175.84;;;1.00;75.27
29825;BME280;16713;52.916;12.834;2023-12-07T03:37:01;101179.38;;;1.00;73.62
29825;BME280;16713;52.916;12.834;2023-12-07T03:39:27;101182.91;;;1.01;74.51
29825;BME280;16713;52.916;12.834;2023-12-07T03:41:56;101184.50;;;1.02;74.82
29825;BME280;16713;52.916;12.834;2023-12-07T03:44:22;101185.84;;;1.04;75.23
29825;BME280;16713;52.916;12.834;2023-12-07T03:46:49;101190.72;;;1.02;74.57
29825;BME280;16713;52.916;12.834;2023-12-07T03:49:15;101187.22;;;1.02;73.81
29825;BME280;16713;52.916;12.834;2023-12-07T03:51:42;101193.16;;;1.04;74.52
29825;BME280;16713;52.916;12.834;2023-12-07T03:54:09;101193.44;;;1.02;75.12
29825;BME280;16713;52.916;12.834;2023-12-07T03:56:35;101191.50;;;1.03;74.64
29825;BME280;16713;52.916;12.834;2023-12-07T03:59:02;101193.97;;;1.04;74.22
29825;BME280;16713;52.916;12.834;2023-12-07T04:01:29;101193.16;;;1.04;73.40
29825;BME280;16713;52.916;12.834;2023-12-07T04:03:56;101191.97;;;1.10;73.32
29825;BME280;16713;52.916;12.834;2023-12-07T04:06:24;101192.56;;;1.07;75.38
29825;BME280;16713;52.916;12.834;2023-12-07T04:08:51;101198.78;;;1.07;73.72
29825;BME280;16713;52.916;12.834;2023-12-07T04:11:18;101196.38;;;1.06;74.35
29825;BME280;16713;52.916;12.834;2023-12-07T04:13:46;101203.41;;;1.07;74.25
29825;BME280;16713;52.916;12.834;2023-12-07T04:16:13;101199.88;;;1.06;73.85
29825;BME280;16713;52.916;12.834;2023-12-07T04:18:39;101207.50;;;1.04;75.07
29825;BME280;16713;52.916;12.834;2023-12-07T04:21:07;101208.88;;;1.02;74.83
29825;BME280;16713;52.916;12.834;2023-12-07T04:23:33;101210.47;;;1.03;75.09
29825;BME280;16713;52.916;12.834;2023-12-07T04:26:00;101221.53;;;1.06;74.42
29825;BME280;16713;52.916;12.834;2023-12-07T04:28:27;101221.84;;;1.05;74.08
29825;BME280;16713;52.916;12.834;2023-12-07T04:30:53;101221.84;;;1.05;74.31
29825;BME280;16713;52.916;12.834;2023-12-07T04:33:20;101225.34;;;1.05;73.78
29825;BME280;16713;52.916;12.834;2023-12-07T04:35:47;101224.25;;;1.06;74.74
29825;BME280;16713;52.916;12.834;2023-12-07T04:38:14;101233.78;;;1.04;73.92
29825;BME280;16713;52.916;12.834;2023-12-07T04:40:40;101234.06;;;1.02;73.39
29825;BME280;16713;52.916;12.834;2023-12-07T04:43:08;101233.25;;;1.02;74.76
29825;BME280;16713;52.916;12.834;2023-12-07T04:45:35;101233.78;;;1.04;73.25
29825;BME280;16713;52.916;12.834;2023-12-07T04:48:02;101238.69;;;1.02;73.48
29825;BME280;16713;52.916;12.834;2023-12-07T04:50:30;101232.72;;;1.00;73.37
29825;BME280;16713;52.916;12.834;2023-12-07T04:52:56;101231.06;;;1.04;74.14
29825;BME280;16713;52.916;12.834;2023-12-07T04:55:23;101227.75;;;0.88;74.09
29825;BME280;16713;52.916;12.834;2023-12-07T04:57:50;101222.34;;;0.88;75.64
29825;BME280;16713;52.916;12.834;2023-12-07T05:00:17;101222.91;;;0.85;74.60
29825;BME280;16713;52.916;12.834;2023-12-07T05:02:44;101222.09;;;0.85;74.21
29825;BME280;16713;52.916;12.834;2023-12-07T05:05:10;101223.19;;;0.84;75.10
29825;BME280;16713;52.916;12.834;2023-12-07T05:07:38;101219.41;;;0.85;74.03
29825;BME280;16713;52.916;12.834;2023-12-07T05:10:05;101224.66;;;0.95;75.41
29825;BME280;16713;52.916;12.834;2023-12-07T05:12:32;101221.47;;;0.93;74.86
29825;BME280;16713;52.916;12.834;2023-12-07T05:14:59;101231.19;;;0.94;74.58
29825;BME280;16713;52.916;12.834;2023-12-07T05:17:25;101225.78;;;0.94;74.61
29825;BME280;16713;52.916;12.834;2023-12-07T05:19:52;101232.78;;;0.95;75.05
29825;BME280;16713;52.916;12.834;2023-12-07T05:22:19;101226.19;;;0.82;75.11
29825;BME280;16713;52.916;12.834;2023-12-07T05:24:45;101228.09;;;0.82;75.76
29825;BME280;16713;52.916;12.834;2023-12-07T05:27:12;101231.25;;;0.89;74.26
29825;BME280;16713;52.916;12.834;2023-12-07T05:29:38;101236.91;;;0.92;75.12
29825;BME280;16713;52.916;12.834;2023-12-07T05:32:06;101230.09;;;0.95;73.78
29825;BME280;16713;52.916;12.834;2023-12-07T05:34:33;101235.72;;;0.98;74.25
29825;BME280;16713;52.916;12.834;2023-12-07T05:37:01;101238.44;;;0.98;74.31
29825;BME280;16713;52.916;12.834;2023-12-07T05:39:28;101244.69;;;0.99;73.71
29825;BME280;16713;52.916;12.834;2023-12-07T05:41:54;101244.09;;;1.02;74.76
29825;BME280;16713;52.916;12.834;2023-12-07T05:44:21;101252.22;;;1.02;73.92
29825;BME280;16713;52.916;12.834;2023-12-07T05:46:49;101255.75;;;1.02;73.64
29825;BME280;16713;52.916;12.834;2023-12-07T05:49:16;101259.53;;;1.01;72.96
29825;BME280;16713;52.916;12.834;2023-12-07T05:51:43;101266.88;;;1.01;73.04
29825;BME280;16713;52.916;12.834;2023-12-07T05:54:09;101266.28;;;1.04;75.15
29825;BME280;16713;52.916;12.834;2023-12-07T05:56:36;101263.00;;;1.07;73.01
29825;BME280;16713;52.916;12.834;2023-12-07T05:59:03;101260.56;;;1.05;74.42
29825;BME280;16713;52.916;12.834;2023-12-07T06:01:29;101272.78;;;1.03;74.32
29825;BME280;16713;52.916;12.834;2023-12-07T06:03:56;101273.88;;;1.02;73.78
29825;BME280;16713;52.916;12.834;2023-12-07T06:06:23;101282.84;;;1.02;73.68
29825;BME280;16713;52.916;12.834;2023-12-07T06:08:50;101280.41;;;1.01;73.28
29825;BME280;16713;52.916;12.834;2023-12-07T06:11:16;101272.53;;;1.04;74.93
29825;BME280;16713;52.916;12.834;2023-12-07T06:13:43;101270.88;;;1.03;73.99
29825;BME280;16713;52.916;12.834;2023-12-07T06:16:13;101279.00;;;1.03;74.02
29825;BME280;16713;52.916;12.834;2023-12-07T06:18:41;101286.31;;;1.03;74.40
29825;BME280;16713;52.916;12.834;2023-12-07T06:21:07;101292.03;;;1.01;73.98
29825;BME280;16713;52.916;12.834;2023-12-07T06:23:34;101299.38;;;1.01;73.06
29825;BME280;16713;52.916;12.834;2023-12-07T06:26:02;101302.09;;;1.01;74.86
29825;BME280;16713;52.916;12.834;2023-12-07T06:28:28;101306.97;;;0.99;73.66
29825;BME280;16713;52.916;12.834;2023-12-07T06:30:55;101305.38;;;0.98;74.63
29825;BME280;16713;52.916;12.834;2023-12-07T06:33:23;101307.78;;;0.99;72.99
29825;BME280;16713;52.916;12.834;2023-12-07T06:35:50;101317.28;;;0.97;72.95
29825;BME280;16713;52.916;12.834;2023-12-07T06:38:17;101309.97;;;0.97;73.90
29825;BME280;16713;52.916;12.834;2023-12-07T06:40:47;101309.16;;;0.97;73.60
29825;BME280;16713;52.916;12.834;2023-12-07T06:43:13;101311.56;;;0.98;74.19
29825;BME280;16713;52.916;12.834;2023-12-07T06:45:40;101308.88;;;0.98;74.41
29825;BME280;16713;52.916;12.834;2023-12-07T06:48:07;101315.91;;;0.99;73.14
29825;BME280;16713;52.916;12.834;2023-12-07T06:50:34;101311.28;;;1.00;74.29
29825;BME280;16713;52.916;12.834;2023-12-07T06:53:01;101315.41;;;0.97;73.00
29825;BME280;16713;52.916;12.834;2023-12-07T06:55:27;101311.56;;;0.98;73.66
29825;BME280;16713;52.916;12.834;2023-12-07T06:57:54;101305.66;;;0.96;75.02
29825;BME280;16713;52.916;12.834;2023-12-07T07:00:21;101313.50;;;0.98;74.32
29825;BME280;16713;52.916;12.834;2023-12-07T07:02:49;101317.28;;;0.97;73.82
29825;BME280;16713;52.916;12.834;2023-12-07T07:05:16;101320.53;;;0.99;73.73
29825;BME280;16713;52.916;12.834;2023-12-07T07:07:42;101320.75;;;1.02;74.49
29825;BME280;16713;52.916;12.834;2023-12-07T07:10:09;101324.78;;;1.05;74.81
29825;BME280;16713;52.916;12.834;2023-12-07T07:12:36;101326.13;;;1.07;73.86
29825;BME280;16713;52.916;12.834;2023-12-07T07:15:03;101331.31;;;1.04;72.94
29825;BME280;16713;52.916;12.834;2023-12-07T07:17:30;101330.19;;;1.05;74.29
29825;BME280;16713;52.916;12.834;2023-12-07T07:19:58;101326.97;;;1.03;74.05
29825;BME280;16713;52.916;12.834;2023-12-07T07:22:25;101331.31;;;1.04;74.42
29825;BME280;16713;52.916;12.834;2023-12-07T07:24:52;101330.78;;;1.02;72.90
29825;BME280;16713;52.916;12.834;2023-12-07T07:27:19;101332.19;;;0.99;72.81
29825;BME280;16713;52.916;12.834;2023-12-07T07:29:45;101338.38;;;1.00;73.52
29825;BME280;16713;52.916;12.834;2023-12-07T07:32:12;101341.09;;;1.00;73.59
29825;BME280;16713;52.916;12.834;2023-12-07T07:34:39;101341.09;;;1.00;73.07
29825;BME280;16713;52.916;12.834;2023-12-07T07:37:06;101336.19;;;1.02;72.90
29825;BME280;16713;52.916;12.834;2023-12-07T07:39:33;101339.66;;;1.07;74.22
29825;BME280;16713;52.916;12.834;2023-12-07T07:42:01;101335.63;;;1.05;73.08
29825;BME280;16713;52.916;12.834;2023-12-07T07:44:27;101343.78;;;1.00;74.49
29825;BME280;16713;52.916;12.834;2023-12-07T07:46:54;101336.19;;;1.02;74.85
29825;BME280;16713;52.916;12.834;2023-12-07T07:49:20;101338.09;;;1.01;74.66
29825;BME280;16713;52.916;12.834;2023-12-07T07:51:47;101346.22;;;1.01;72.98
29825;BME280;16713;52.916;12.834;2023-12-07T07:54:14;101350.03;;;1.00;74.21
29825;BME280;16713;52.916;12.834;2023-12-07T07:56:40;101343.00;;;0.99;73.95
29825;BME280;16713;52.916;12.834;2023-12-07T07:59:09;101347.31;;;1.00;74.82
29825;BME280;16713;52.916;12.834;2023-12-07T08:01:36;101351.63;;;1.01;74.19
29825;BME280;16713;52.916;12.834;2023-12-07T08:04:03;101348.38;;;1.04;74.13
29825;BME280;16713;52.916;12.834;2023-12-07T08:06:30;101353.28;;;1.02;74.38
29825;BME280;16713;52.916;12.834;2023-12-07T08:08:59;101348.63;;;1.03;73.66
29825;BME280;16713;52.916;12.834;2023-12-07T08:11:26;101355.69;;;1.04;73.45
29825;BME280;16713;52.916;12.834;2023-12-07T08:13:53;101354.56;;;1.05;74.77
29825;BME280;16713;52.916;12.834;2023-12-07T08:16:20;101356.72;;;1.08;73.91
29825;BME280;16713;52.916;12.834;2023-12-07T08:18:46;101358.63;;;1.07;73.42
29825;BME280;16713;52.916;12.834;2023-12-07T08:21:21;101364.34;;;1.06;73.39
29825;BME280;16713;52.916;12.834;2023-12-07T08:23:53;101361.09;;;1.04;74.85
29825;BME280;16713;52.916;12.834;2023-12-07T08:26:21;101361.91;;;1.04;74.72
29825;BME280;16713;52.916;12.834;2023-12-07T08:28:48;101365.13;;;1.06;74.04
29825;BME280;16713;52.916;12.834;2023-12-07T08:31:14;101363.53;;;1.05;75.06
29825;BME280;16713;52.916;12.834;2023-12-07T08:33:41;101359.41;;;1.08;73.60
29825;BME280;16713;52.916;12.834;2023-12-07T08:36:08;101366.75;;;1.07;74.92
29825;BME280;16713;52.916;12.834;2023-12-07T08:38:35;101360.22;;;1.08;74.86
29825;BME280;16713;52.916;12.834;2023-12-07T08:41:01;101372.38;;;1.11;74.31
29825;BME280;16713;52.916;12.834;2023-12-07T08:43:29;101375.09;;;1.11;74.79
29825;BME280;16713;52.916;12.834;2023-12-07T08:45:57;101374.03;;;1.12;73.25
29825;BME280;16713;52.916;12.834;2023-12-07T08:48:27;101379.19;;;1.08;74.13
29825;BME280;16713;52.916;12.834;2023-12-07T08:50:54;101387.63;;;1.07;74.74
29825;BME280;16713;52.916;12.834;2023-12-07T08:53:21;101385.72;;;1.07;74.53
29825;BME280;16713;52.916;12.834;2023-12-07T08:55:47;101381.91;;;1.08;73.59
29825;BME280;16713;52.916;12.834;2023-12-07T08:58:14;101380.31;;;1.07;73.69
29825;BME280;16713;52.916;12.834;2023-12-07T09:00:41;101384.09;;;1.06;73.20
29825;BME280;16713;52.916;12.834;2023-12-07T09:03:07;101379.19;;;1.08;73.16
29825;BME280;16713;52.916;12.834;2023-12-07T09:05:34;101371.59;;;1.10;74.60
29825;BME280;16713;52.916;12.834;2023-12-07T09:08:01;101375.63;;;1.13;73.61
29825;BME280;16713;52.916;12.834;2023-12-07T09:10:28;101378.34;;;1.13;73.84
29825;BME280;16713;52.916;12.834;2023-12-07T09:12:54;101384.84;;;1.12;73.72
29825;BME280;16713;52.916;12.834;2023-12-07T09:15:21;101385.38;;;1.14;75.24
29825;BME280;16713;52.916;12.834;2023-12-07T09:17:48;101393.50;;;1.14;75.02
29825;BME280;16713;52.916;12.834;2023-12-07T09:20:17;101398.94;;;1.14;74.17
29825;BME280;16713;52.916;12.834;2023-12-07T09:22:45;101402.13;;;1.16;74.67
29825;BME280;16713;52.916;12.834;2023-12-07T09:25:13;101408.66;;;1.15;73.31
29825;BME280;16713;52.916;12.834;2023-12-07T09:27:40;101406.53;;;1.12;74.36
29825;BME280;16713;52.916;12.834;2023-12-07T09:30:08;101407.09;;;1.09;73.67
29825;BME280;16713;52.916;12.834;2023-12-07T09:32:40;101412.81;;;1.07;75.10
29825;BME280;16713;52.916;12.834;2023-12-07T09:35:08;101413.59;;;1.08;74.57
29825;BME280;16713;52.916;12.834;2023-12-07T09:37:41;101409.34;;;1.02;74.15
29825;BME280;16713;52.916;12.834;2023-12-07T09:40:10;101410.94;;;1.03;74.01
29825;BME280;16713;52.916;12.834;2023-12-07T09:42:40;101407.97;;;1.04;74.12
29825;BME280;16713;52.916;12.834;2023-12-07T09:45:09;101417.19;;;1.03;75.33
29825;BME280;16713;52.916;12.834;2023-12-07T09:47:37;101409.88;;;1.04;74.70
29825;BME280;16713;52.916;12.834;2023-12-07T09:50:07;101411.75;;;1.03;75.70
29825;BME280;16713;52.916;12.834;2023-12-07T09:52:38;101409.34;;;1.02;75.17
29825;BME280;16713;52.916;12.834;2023-12-07T09:55:11;101408.22;;;1.03;75.77
29825;BME280;16713;52.916;12.834;2023-12-07T09:57:38;101410.41;;;1.06;74.80
29825;BME280;16713;52.916;12.834;2023-12-07T10:00:05;101412.56;;;1.04;74.79
29825;BME280;16713;52.916;12.834;2023-12-07T10:02:37;101402.81;;;1.03;74.59
29825;BME280;16713;52.916;12.834;2023-12-07T10:05:08;101409.88;;;1.04;75.34
29825;BME280;16713;52.916;12.834;2023-12-07T10:07:40;101412.81;;;1.07;75.10
29825;BME280;16713;52.916;12.834;2023-12-07T10:10:07;101398.94;;;1.14;75.11
29825;BME280;16713;52.916;12.834;2023-12-07T10:12:34;101405.72;;;1.11;73.64
29825;BME280;16713;52.916;12.834;2023-12-07T10:15:16;101404.06;;;1.15;73.65
29825;BME280;16713;52.916;12.834;2023-12-07T10:17:53;101399.72;;;1.14;74.21
29825;BME280;16713;52.916;12.834;2023-12-07T10:20:22;101399.72;;;1.14;73.72
29825;BME280;16713;52.916;12.834;2023-12-07T10:23:05;101402.13;;;1.16;74.80
29825;BME280;16713;52.916;12.834;2023-12-07T10:25:37;101393.72;;;1.17;73.98
29825;BME280;16713;52.916;12.834;2023-12-07T10:28:04;101394.53;;;1.18;75.49
29825;BME280;16713;52.916;12.834;2023-12-07T10:30:34;101403.19;;;1.20;74.82
29825;BME280;16713;52.916;12.834;2023-12-07T10:33:04;101399.38;;;1.21;75.22
29825;BME280;16713;52.916;12.834;2023-12-07T10:35:31;101400.19;;;1.21;74.39
29825;BME280;16713;52.916;12.834;2023-12-07T10:37:58;101400.47;;;1.20;74.40
29825;BME280;16713;52.916;12.834;2023-12-07T10:40:26;101405.31;;;1.23;74.35
29825;BME280;16713;52.916;12.834;2023-12-07T10:42:56;101401.81;;;1.22;74.53
29825;BME280;16713;52.916;12.834;2023-12-07T10:45:26;101394.47;;;1.23;73.59
29825;BME280;16713;52.916;12.834;2023-12-07T10:48:06;101385.78;;;1.26;73.35
29825;BME280;16713;52.916;12.834;2023-12-07T10:50:41;101390.38;;;1.25;74.56
29825;BME280;16713;52.916;12.834;2023-12-07T10:53:33;101385.78;;;1.26;73.41
29825;BME280;16713;52.916;12.834;2023-12-07T10:56:04;101386.00;;;1.29;73.85
29825;BME280;16713;52.916;12.834;2023-12-07T10:58:34;101388.19;;;1.27;75.00
29825;BME280;16713;52.916;12.834;2023-12-07T11:01:02;101392.25;;;1.30;74.02
29825;BME280;16713;52.916;12.834;2023-12-07T11:03:30;101396.03;;;1.29;74.51
29825;BME280;16713;52.916;12.834;2023-12-07T11:05:58;101389.00;;;1.28;74.19
29825;BME280;16713;52.916;12.834;2023-12-07T11:08:32;101389.75;;;1.33;73.56
29825;BME280;16713;52.916;12.834;2023-12-07T11:11:05;101387.56;;;1.35;73.67
29825;BME280;16713;52.916;12.834;2023-12-07T11:13:36;101380.00;;;1.32;74.19
29825;BME280;16713;52.916;12.834;2023-12-07T11:16:04;101370.78;;;1.33;75.09
29825;BME280;16713;52.916;12.834;2023-12-07T11:18:31;101374.31;;;1.34;74.30
29825;BME280;16713;52.916;12.834;2023-12-07T11:20:58;101363.97;;;1.36;74.03
29825;BME280;16713;52.916;12.834;2023-12-07T11:23:27;101374.81;;;1.36;74.45
29825;BME280;16713;52.916;12.834;2023-12-07T11:25:54;101374.78;;;1.41;74.06
29825;BME280;16713;52.916;12.834;2023-12-07T11:28:35;101375.06;;;1.39;75.15
29825;BME280;16713;52.916;12.834;2023-12-07T11:31:03;101372.06;;;1.41;73.28
29825;BME280;16713;52.916;12.834;2023-12-07T11:33:29;101379.91;;;1.42;73.22
29825;BME280;16713;52.916;12.834;2023-12-07T11:38:26;101379.09;;;1.42;73.18
29825;BME280;16713;52.916;12.834;2023-12-07T11:40:54;101369.84;;;1.43;73.99
29825;BME280;16713;52.916;12.834;2023-12-07T11:46:07;101364.72;;;1.41;74.51
29825;BME280;16713;52.916;12.834;2023-12-07T11:48:34;101363.63;;;1.42;73.44
29825;BME280;16713;52.916;12.834;2023-12-07T11:51:04;101360.63;;;1.44;73.61
29825;BME280;16713;52.916;12.834;2023-12-07T11:53:32;101363.28;;;1.49;74.97
29825;BME280;16713;52.916;12.834;2023-12-07T11:56:01;101366.06;;;1.44;74.48
29825;BME280;16713;52.916;12.834;2023-12-07T11:58:30;101366.00;;;1.49;74.98
29825;BME280;16713;52.916;12.834;2023-12-07T12:01:00;101373.91;;;1.45;74.16
29825;BME280;16713;52.916;12.834;2023-12-07T12:03:29;101374.19;;;1.44;73.58
29825;BME280;16713;52.916;12.834;2023-12-07T12:05:56;101368.75;;;1.44;73.88
29825;BME280;16713;52.916;12.834;2023-12-07T12:08:23;101376.66;;;1.40;73.26
29825;BME280;16713;52.916;12.834;2023-12-07T12:10:50;101378.50;;;1.45;74.25
29825;BME280;16713;52.916;12.834;2023-12-07T12:13:49;101380.44;;;1.44;74.29
29825;BME280;16713;52.916;12.834;2023-12-07T12:16:16;101377.91;;;1.48;74.21
29825;BME280;16713;52.916;12.834;2023-12-07T12:18:43;101380.63;;;1.48;74.67
29825;BME280;16713;52.916;12.834;2023-12-07T12:21:10;101377.91;;;1.48;74.78
29825;BME280;16713;52.916;12.834;2023-12-07T12:23:36;101374.72;;;1.46;74.41
29825;BME280;16713;52.916;12.834;2023-12-07T12:26:04;101378.50;;;1.45;73.67
29825;BME280;16713;52.916;12.834;2023-12-07T12:28:32;101366.56;;;1.46;73.47
29825;BME280;16713;52.916;12.834;2023-12-07T12:30:59;101366.78;;;1.49;74.29
29825;BME280;16713;52.916;12.834;2023-12-07T12:33:27;101366.28;;;1.47;73.36
29825;BME280;16713;52.916;12.834;2023-12-07T12:36:06;101366.00;;;1.49;75.10
29825;BME280;16713;52.916;12.834;2023-12-07T12:38:33;101365.94;;;1.54;73.44
29825;BME280;16713;52.916;12.834;2023-12-07T12:41:09;101362.09;;;1.55;75.30
29825;BME280;16713;52.916;12.834;2023-12-07T12:43:36;101365.94;;;1.54;74.96
29825;BME280;16713;52.916;12.834;2023-12-07T12:46:03;101361.59;;;1.53;73.84
29825;BME280;16713;52.916;12.834;2023-12-07T12:48:32;101365.69;;;1.50;73.33
29825;BME280;16713;52.916;12.834;2023-12-07T12:51:13;101363.78;;;1.51;73.44
29825;BME280;16713;52.916;12.834;2023-12-07T12:53:45;101365.47;;;1.47;74.79
29825;BME280;16713;52.916;12.834;2023-12-07T12:56:18;101364.06;;;1.49;75.44
29825;BME280;16713;52.916;12.834;2023-12-07T12:58:45;101369.28;;;1.46;74.65
29825;BME280;16713;52.916;12.834;2023-12-07T13:01:12;101366.28;;;1.47;73.76
29825;BME280;16713;52.916;12.834;2023-12-07T13:03:39;101376.53;;;1.50;73.61
29825;BME280;16713;52.916;12.834;2023-12-07T13:06:06;101372.72;;;1.51;74.95